sensor_id;sensor_type;location;lat;lon;timestamp;P1;durP1;ratioP1;P2;durP2;ratioP2
17214;SDS011;8723;51.502;6.918;2023-10-13T00:01:45;12.25;;;10.80;;
17214;SDS011;8723;51.502;6.918;2023-10-13T00:04:13;15.15;;;11.75;;
17214;SDS011;8723;51.502;6.918;2023-10-13T00:06:40;14.20;;;11.38;;
17214;SDS011;8723;51.502;6.918;2023-10-13T00:09:10;13.65;;;11.20;;
17214;SDS011;8723;51.502;6.918;2023-10-13T00:11:41;14.07;;;11.63;;
17214;SDS011;8723;51.502;6.918;2023-10-13T00:14:11;14.27;;;11.07;;
17214;SDS011;8723;51.502;6.918;2023-10-13T00:16:42;12.48;;;11.23;;
17214;SDS011;8723;51.502;6.918;2023-10-13T00:19:25;11.88;;;10.48;;
17214;SDS011;8723;51.502;6.918;2023-10-13T00:21:53;13.18;;;11.35;;
17214;SDS011;8723;51.502;6.918;2023-10-13T00:24:21;13.80;;;11.20;;
17214;SDS011;8723;51.502;6.918;2023-10-13T00:26:54;11.80;;;10.60;;
17214;SDS011;8723;51.502;6.918;2023-10-13T00:29:24;15.77;;;10.90;;
17214;SDS011;8723;51.502;6.918;2023-10-13T00:32:02;11.65;;;10.15;;
17214;SDS011;8723;51.502;6.918;2023-10-13T00:34:30;11.90;;;10.30;;
17214;SDS011;8723;51.502;6.918;2023-10-13T00:36:57;11.50;;;9.95;;
17214;SDS011;8723;51.502;6.918;2023-10-13T00:39:38;11.50;;;9.88;;
17214;SDS011;8723;51.502;6.918;2023-10-13T00:42:09;11.75;;;10.43;;
17214;SDS011;8723;51.502;6.918;2023-10-13T00:44:44;12.05;;;10.60;;
17214;SDS011;8723;51.502;6.918;2023-10-13T00:47:13;13.35;;;10.32;;
17214;SDS011;8723;51.502;6.918;2023-10-13T00:49:50;12.40;;;10.98;;
17214;SDS011;8723;51.502;6.918;2023-10-13T00:52:18;11.50;;;10.30;;
17214;SDS011;8723;51.502;6.918;2023-10-13T00:54:44;12.00;;;10.57;;
17214;SDS011;8723;51.502;6.918;2023-10-13T00:57:12;12.52;;;10.32;;
17214;SDS011;8723;51.502;6.918;2023-10-13T00:59:52;11.55;;;10.25;;
17214;SDS011;8723;51.502;6.918;2023-10-13T01:02:20;11.32;;;10.13;;
17214;SDS011;8723;51.502;6.918;2023-10-13T01:05:03;10.98;;;9.77;;
17214;SDS011;8723;51.502;6.918;2023-10-13T01:07:30;12.55;;;10.50;;
17214;SDS011;8723;51.502;6.918;2023-10-13T01:09:56;12.40;;;10.50;;
17214;SDS011;8723;51.502;6.918;2023-10-13T01:12:23;11.63;;;10.45;;
17214;SDS011;8723;51.502;6.918;2023-10-13T01:14:49;11.95;;;10.70;;
17214;SDS011;8723;51.502;6.918;2023-10-13T01:17:17;11.50;;;10.30;;
17214;SDS011;8723;51.502;6.918;2023-10-13T01:19:43;11.50;;;10.05;;
17214;SDS011;8723;51.502;6.918;2023-10-13T01:22:10;11.15;;;10.07;;
17214;SDS011;8723;51.502;6.918;2023-10-13T01:24:38;12.43;;;11.10;;
17214;SDS011;8723;51.502;6.918;2023-10-13T01:27:05;11.38;;;10.07;;
17214;SDS011;8723;51.502;6.918;2023-10-13T01:29:40;11.00;;;9.82;;
17214;SDS011;8723;51.502;6.918;2023-10-13T01:32:12;13.82;;;10.63;;
17214;SDS011;8723;51.502;6.918;2023-10-13T01:34:39;12.02;;;10.27;;
17214;SDS011;8723;51.502;6.918;2023-10-13T01:37:10;11.45;;;10.25;;
17214;SDS011;8723;51.502;6.918;2023-10-13T01:39:38;14.05;;;10.85;;
17214;SDS011;8723;51.502;6.918;2023-10-13T01:42:05;11.77;;;10.50;;
17214;SDS011;8723;51.502;6.918;2023-10-13T01:44:33;11.32;;;10.13;;
17214;SDS011;8723;51.502;6.918;2023-10-13T01:47:01;10.93;;;9.83;;
17214;SDS011;8723;51.502;6.918;2023-10-13T01:49:32;11.65;;;10.45;;
17214;SDS011;8723;51.502;6.918;2023-10-13T01:52:08;12.02;;;9.90;;
17214;SDS011;8723;51.502;6.918;2023-10-13T01:54:43;11.35;;;10.20;;
17214;SDS011;8723;51.502;6.918;2023-10-13T01:57:14;11.02;;;9.85;;
17214;SDS011;8723;51.502;6.918;2023-10-13T01:59:43;11.60;;;10.35;;
17214;SDS011;8723;51.502;6.918;2023-10-13T02:02:13;12.68;;;9.95;;
17214;SDS011;8723;51.502;6.918;2023-10-13T02:04:45;11.00;;;9.90;;
17214;SDS011;8723;51.502;6.918;2023-10-13T02:07:21;12.40;;;10.02;;
17214;SDS011;8723;51.502;6.918;2023-10-13T02:09:53;11.47;;;9.43;;
17214;SDS011;8723;51.502;6.918;2023-10-13T02:12:20;11.27;;;10.10;;
17214;SDS011;8723;51.502;6.918;2023-10-13T02:14:53;11.30;;;10.10;;
17214;SDS011;8723;51.502;6.918;2023-10-13T02:17:27;10.95;;;9.57;;
17214;SDS011;8723;51.502;6.918;2023-10-13T02:20:05;11.03;;;9.83;;
17214;SDS011;8723;51.502;6.918;2023-10-13T02:22:40;11.57;;;10.40;;
17214;SDS011;8723;51.502;6.918;2023-10-13T02:25:16;11.40;;;9.40;;
17214;SDS011;8723;51.502;6.918;2023-10-13T02:28:00;11.65;;;9.93;;
17214;SDS011;8723;51.502;6.918;2023-10-13T02:30:27;10.98;;;9.57;;
17214;SDS011;8723;51.502;6.918;2023-10-13T02:32:57;10.27;;;9.05;;
17214;SDS011;8723;51.502;6.918;2023-10-13T02:35:31;11.05;;;9.93;;
17214;SDS011;8723;51.502;6.918;2023-10-13T02:38:08;13.23;;;10.03;;
17214;SDS011;8723;51.502;6.918;2023-10-13T02:40:39;10.30;;;9.07;;
17214;SDS011;8723;51.502;6.918;2023-10-13T02:43:07;12.68;;;10.13;;
17214;SDS011;8723;51.502;6.918;2023-10-13T02:45:33;11.13;;;9.52;;
17214;SDS011;8723;51.502;6.918;2023-10-13T02:48:02;10.38;;;9.27;;
17214;SDS011;8723;51.502;6.918;2023-10-13T02:50:39;10.77;;;9.50;;
17214;SDS011;8723;51.502;6.918;2023-10-13T02:53:10;11.23;;;10.13;;
17214;SDS011;8723;51.502;6.918;2023-10-13T02:55:49;10.90;;;9.60;;
17214;SDS011;8723;51.502;6.918;2023-10-13T02:58:16;11.20;;;10.00;;
17214;SDS011;8723;51.502;6.918;2023-10-13T03:00:43;9.93;;;8.93;;
17214;SDS011;8723;51.502;6.918;2023-10-13T03:03:09;10.73;;;9.60;;
17214;SDS011;8723;51.502;6.918;2023-10-13T03:05:39;11.10;;;9.40;;
17214;SDS011;8723;51.502;6.918;2023-10-13T03:08:07;13.30;;;10.05;;
17214;SDS011;8723;51.502;6.918;2023-10-13T03:10:36;10.23;;;9.23;;
17214;SDS011;8723;51.502;6.918;2023-10-13T03:13:11;11.32;;;10.20;;
17214;SDS011;8723;51.502;6.918;2023-10-13T03:15:38;10.50;;;9.05;;
17214;SDS011;8723;51.502;6.918;2023-10-13T03:18:04;11.40;;;9.77;;
17214;SDS011;8723;51.502;6.918;2023-10-13T03:20:31;10.60;;;9.55;;
17214;SDS011;8723;51.502;6.918;2023-10-13T03:22:57;11.15;;;10.07;;
17214;SDS011;8723;51.502;6.918;2023-10-13T03:25:24;11.48;;;10.25;;
17214;SDS011;8723;51.502;6.918;2023-10-13T03:27:54;13.25;;;9.93;;
17214;SDS011;8723;51.502;6.918;2023-10-13T03:30:31;10.70;;;9.40;;
17214;SDS011;8723;51.502;6.918;2023-10-13T03:33:03;13.50;;;10.05;;
17214;SDS011;8723;51.502;6.918;2023-10-13T03:35:35;12.30;;;10.83;;
17214;SDS011;8723;51.502;6.918;2023-10-13T03:38:05;12.15;;;10.88;;
17214;SDS011;8723;51.502;6.918;2023-10-13T03:40:41;13.38;;;10.40;;
17214;SDS011;8723;51.502;6.918;2023-10-13T03:43:13;11.85;;;10.30;;
17214;SDS011;8723;51.502;6.918;2023-10-13T03:45:44;12.57;;;11.23;;
17214;SDS011;8723;51.502;6.918;2023-10-13T03:48:13;13.38;;;11.30;;
17214;SDS011;8723;51.502;6.918;2023-10-13T03:50:53;12.73;;;11.50;;
17214;SDS011;8723;51.502;6.918;2023-10-13T03:53:28;12.60;;;11.40;;
17214;SDS011;8723;51.502;6.918;2023-10-13T03:55:58;13.18;;;11.77;;
17214;SDS011;8723;51.502;6.918;2023-10-13T03:58:34;12.80;;;11.40;;
17214;SDS011;8723;51.502;6.918;2023-10-13T04:01:02;12.27;;;11.13;;
17214;SDS011;8723;51.502;6.918;2023-10-13T04:03:30;13.20;;;11.80;;
17214;SDS011;8723;51.502;6.918;2023-10-13T04:06:01;13.55;;;11.65;;
17214;SDS011;8723;51.502;6.918;2023-10-13T04:08:31;14.55;;;11.65;;
17214;SDS011;8723;51.502;6.918;2023-10-13T04:11:35;13.50;;;10.90;;
17214;SDS011;8723;51.502;6.918;2023-10-13T04:14:24;13.75;;;12.00;;
17214;SDS011;8723;51.502;6.918;2023-10-13T04:17:16;14.73;;;13.27;;
17214;SDS011;8723;51.502;6.918;2023-10-13T04:19:47;12.18;;;10.88;;
17214;SDS011;8723;51.502;6.918;2023-10-13T04:22:28;12.50;;;11.20;;
17214;SDS011;8723;51.502;6.918;2023-10-13T04:25:22;16.65;;;12.50;;
17214;SDS011;8723;51.502;6.918;2023-10-13T04:28:00;12.77;;;11.33;;
17214;SDS011;8723;51.502;6.918;2023-10-13T04:30:59;14.38;;;11.90;;
17214;SDS011;8723;51.502;6.918;2023-10-13T04:33:38;13.15;;;11.27;;
17214;SDS011;8723;51.502;6.918;2023-10-13T04:36:16;13.48;;;11.25;;
17214;SDS011;8723;51.502;6.918;2023-10-13T04:39:01;12.20;;;10.90;;
17214;SDS011;8723;51.502;6.918;2023-10-13T04:41:35;13.38;;;11.98;;
17214;SDS011;8723;51.502;6.918;2023-10-13T04:44:04;14.13;;;11.43;;
17214;SDS011;8723;51.502;6.918;2023-10-13T04:46:51;13.47;;;12.07;;
17214;SDS011;8723;51.502;6.918;2023-10-13T04:49:34;13.35;;;11.70;;
17214;SDS011;8723;51.502;6.918;2023-10-13T04:52:17;13.15;;;11.18;;
17214;SDS011;8723;51.502;6.918;2023-10-13T04:55:10;12.73;;;11.43;;
17214;SDS011;8723;51.502;6.918;2023-10-13T04:57:57;13.15;;;10.88;;
17214;SDS011;8723;51.502;6.918;2023-10-13T05:00:35;13.48;;;11.52;;
17214;SDS011;8723;51.502;6.918;2023-10-13T05:03:42;16.80;;;11.20;;
17214;SDS011;8723;51.502;6.918;2023-10-13T05:06:47;11.80;;;10.60;;
17214;SDS011;8723;51.502;6.918;2023-10-13T05:09:31;13.30;;;10.73;;
17214;SDS011;8723;51.502;6.918;2023-10-13T05:12:16;12.35;;;11.00;;
17214;SDS011;8723;51.502;6.918;2023-10-13T05:15:08;14.32;;;10.70;;
17214;SDS011;8723;51.502;6.918;2023-10-13T05:17:52;12.63;;;10.63;;
17214;SDS011;8723;51.502;6.918;2023-10-13T05:20:37;13.93;;;10.85;;
17214;SDS011;8723;51.502;6.918;2023-10-13T05:23:22;13.88;;;10.73;;
17214;SDS011;8723;51.502;6.918;2023-10-13T05:26:06;13.27;;;11.00;;
17214;SDS011;8723;51.502;6.918;2023-10-13T05:28:50;14.98;;;11.48;;
17214;SDS011;8723;51.502;6.918;2023-10-13T05:31:31;14.75;;;10.85;;
17214;SDS011;8723;51.502;6.918;2023-10-13T05:34:15;12.82;;;10.85;;
17214;SDS011;8723;51.502;6.918;2023-10-13T05:36:59;12.88;;;10.75;;
17214;SDS011;8723;51.502;6.918;2023-10-13T05:39:45;12.63;;;11.15;;
17214;SDS011;8723;51.502;6.918;2023-10-13T05:42:29;14.68;;;12.13;;
17214;SDS011;8723;51.502;6.918;2023-10-13T05:45:13;12.57;;;10.63;;
17214;SDS011;8723;51.502;6.918;2023-10-13T05:48:02;12.00;;;10.80;;
17214;SDS011;8723;51.502;6.918;2023-10-13T05:50:36;13.80;;;12.02;;
17214;SDS011;8723;51.502;6.918;2023-10-13T05:53:35;14.27;;;11.07;;
17214;SDS011;8723;51.502;6.918;2023-10-13T05:56:32;13.43;;;10.55;;
17214;SDS011;8723;51.502;6.918;2023-10-13T05:59:17;12.50;;;11.20;;
17214;SDS011;8723;51.502;6.918;2023-10-13T06:02:01;11.90;;;10.60;;
17214;SDS011;8723;51.502;6.918;2023-10-13T06:04:45;14.10;;;10.18;;
17214;SDS011;8723;51.502;6.918;2023-10-13T06:07:29;11.10;;;9.40;;
17214;SDS011;8723;51.502;6.918;2023-10-13T06:10:14;12.57;;;10.05;;
17214;SDS011;8723;51.502;6.918;2023-10-13T06:13:00;12.93;;;10.40;;
17214;SDS011;8723;51.502;6.918;2023-10-13T06:15:44;10.40;;;9.02;;
17214;SDS011;8723;51.502;6.918;2023-10-13T06:18:28;12.13;;;8.95;;
17214;SDS011;8723;51.502;6.918;2023-10-13T06:21:12;11.47;;;9.30;;
17214;SDS011;8723;51.502;6.918;2023-10-13T06:23:57;11.07;;;8.82;;
17214;SDS011;8723;51.502;6.918;2023-10-13T06:26:41;3.00;;;1.25;;
17214;SDS011;8723;51.502;6.918;2023-10-13T06:29:26;0.55;;;0.52;;
17214;SDS011;8723;51.502;6.918;2023-10-13T06:31:53;3.45;;;0.98;;
17214;SDS011;8723;51.502;6.918;2023-10-13T06:34:22;0.55;;;0.55;;
17214;SDS011;8723;51.502;6.918;2023-10-13T06:37:03;1.20;;;0.90;;
17214;SDS011;8723;51.502;6.918;2023-10-13T06:39:47;0.47;;;0.47;;
17214;SDS011;8723;51.502;6.918;2023-10-13T06:42:14;1.33;;;1.10;;
17214;SDS011;8723;51.502;6.918;2023-10-13T06:44:42;0.52;;;0.52;;
17214;SDS011;8723;51.502;6.918;2023-10-13T06:47:11;4.53;;;1.52;;
17214;SDS011;8723;51.502;6.918;2023-10-13T06:49:39;0.80;;;0.80;;
17214;SDS011;8723;51.502;6.918;2023-10-13T06:52:08;1.52;;;0.90;;
17214;SDS011;8723;51.502;6.918;2023-10-13T06:54:36;0.90;;;0.90;;
17214;SDS011;8723;51.502;6.918;2023-10-13T06:57:04;0.40;;;0.40;;
17214;SDS011;8723;51.502;6.918;2023-10-13T06:59:32;0.52;;;0.52;;
17214;SDS011;8723;51.502;6.918;2023-10-13T07:02:03;0.60;;;0.60;;
17214;SDS011;8723;51.502;6.918;2023-10-13T07:04:31;0.35;;;0.35;;
17214;SDS011;8723;51.502;6.918;2023-10-13T07:06:58;0.80;;;0.80;;
17214;SDS011;8723;51.502;6.918;2023-10-13T07:09:26;0.50;;;0.50;;
17214;SDS011;8723;51.502;6.918;2023-10-13T07:12:14;3.65;;;1.92;;
17214;SDS011;8723;51.502;6.918;2023-10-13T07:14:47;0.30;;;0.30;;
17214;SDS011;8723;51.502;6.918;2023-10-13T07:17:19;1.50;;;1.38;;
17214;SDS011;8723;51.502;6.918;2023-10-13T07:19:50;1.65;;;0.77;;
17214;SDS011;8723;51.502;6.918;2023-10-13T07:22:21;0.40;;;0.40;;
17214;SDS011;8723;51.502;6.918;2023-10-13T07:24:50;0.50;;;0.50;;
17214;SDS011;8723;51.502;6.918;2023-10-13T07:27:18;0.57;;;0.57;;
17214;SDS011;8723;51.502;6.918;2023-10-13T07:29:49;0.40;;;0.40;;
17214;SDS011;8723;51.502;6.918;2023-10-13T07:32:23;1.55;;;0.65;;
17214;SDS011;8723;51.502;6.918;2023-10-13T07:34:54;0.52;;;0.52;;
17214;SDS011;8723;51.502;6.918;2023-10-13T07:37:22;0.50;;;0.50;;
17214;SDS011;8723;51.502;6.918;2023-10-13T07:39:53;1.10;;;0.90;;
17214;SDS011;8723;51.502;6.918;2023-10-13T07:42:22;4.57;;;0.57;;
17214;SDS011;8723;51.502;6.918;2023-10-13T07:44:55;0.90;;;0.90;;
17214;SDS011;8723;51.502;6.918;2023-10-13T07:47:23;1.15;;;0.95;;
17214;SDS011;8723;51.502;6.918;2023-10-13T07:49:53;1.40;;;0.95;;
17214;SDS011;8723;51.502;6.918;2023-10-13T07:52:21;0.70;;;0.65;;
17214;SDS011;8723;51.502;6.918;2023-10-13T07:54:52;0.60;;;0.60;;
17214;SDS011;8723;51.502;6.918;2023-10-13T07:57:25;0.60;;;0.40;;
17214;SDS011;8723;51.502;6.918;2023-10-13T07:59:54;0.30;;;0.30;;
17214;SDS011;8723;51.502;6.918;2023-10-13T08:02:35;0.80;;;0.80;;
17214;SDS011;8723;51.502;6.918;2023-10-13T08:05:15;0.60;;;0.60;;
17214;SDS011;8723;51.502;6.918;2023-10-13T08:07:50;2.60;;;0.90;;
17214;SDS011;8723;51.502;6.918;2023-10-13T08:10:21;1.20;;;1.10;;
17214;SDS011;8723;51.502;6.918;2023-10-13T08:12:54;0.40;;;0.40;;
17214;SDS011;8723;51.502;6.918;2023-10-13T08:15:23;0.73;;;0.73;;
17214;SDS011;8723;51.502;6.918;2023-10-13T08:17:58;0.70;;;0.60;;
17214;SDS011;8723;51.502;6.918;2023-10-13T08:20:29;0.60;;;0.60;;
17214;SDS011;8723;51.502;6.918;2023-10-13T08:23:03;0.73;;;0.73;;
17214;SDS011;8723;51.502;6.918;2023-10-13T08:25:39;0.53;;;0.53;;
17214;SDS011;8723;51.502;6.918;2023-10-13T08:28:20;6.93;;;1.55;;
17214;SDS011;8723;51.502;6.918;2023-10-13T08:31:04;0.40;;;0.40;;
17214;SDS011;8723;51.502;6.918;2023-10-13T08:33:41;0.32;;;0.32;;
17214;SDS011;8723;51.502;6.918;2023-10-13T08:36:12;0.50;;;0.50;;
17214;SDS011;8723;51.502;6.918;2023-10-13T08:38:53;1.97;;;1.23;;
17214;SDS011;8723;51.502;6.918;2023-10-13T08:41:21;0.20;;;0.20;;
17214;SDS011;8723;51.502;6.918;2023-10-13T08:44:02;0.60;;;0.50;;
17214;SDS011;8723;51.502;6.918;2023-10-13T08:46:34;4.20;;;1.35;;
17214;SDS011;8723;51.502;6.918;2023-10-13T08:49:27;1.40;;;1.25;;
17214;SDS011;8723;51.502;6.918;2023-10-13T08:51:55;0.52;;;0.52;;
17214;SDS011;8723;51.502;6.918;2023-10-13T08:54:32;2.00;;;1.50;;
17214;SDS011;8723;51.502;6.918;2023-10-13T08:57:04;1.10;;;1.00;;
17214;SDS011;8723;51.502;6.918;2023-10-13T08:59:57;0.93;;;0.93;;
17214;SDS011;8723;51.502;6.918;2023-10-13T09:02:44;1.40;;;0.80;;
17214;SDS011;8723;51.502;6.918;2023-10-13T09:05:47;0.68;;;0.68;;
17214;SDS011;8723;51.502;6.918;2023-10-13T09:08:26;0.68;;;0.68;;
17214;SDS011;8723;51.502;6.918;2023-10-13T09:11:01;3.90;;;1.35;;
17214;SDS011;8723;51.502;6.918;2023-10-13T09:13:36;0.95;;;0.93;;
17214;SDS011;8723;51.502;6.918;2023-10-13T09:16:09;0.95;;;0.95;;
17214;SDS011;8723;51.502;6.918;2023-10-13T09:18:42;0.50;;;0.50;;
17214;SDS011;8723;51.502;6.918;2023-10-13T09:21:12;0.93;;;0.85;;
17214;SDS011;8723;51.502;6.918;2023-10-13T09:24:09;0.28;;;0.28;;
17214;SDS011;8723;51.502;6.918;2023-10-13T09:26:52;3.80;;;1.75;;
17214;SDS011;8723;51.502;6.918;2023-10-13T09:29:21;1.80;;;1.35;;
17214;SDS011;8723;51.502;6.918;2023-10-13T09:31:47;0.55;;;0.55;;
17214;SDS011;8723;51.502;6.918;2023-10-13T09:34:24;1.92;;;1.30;;
17214;SDS011;8723;51.502;6.918;2023-10-13T09:36:55;2.30;;;1.48;;
17214;SDS011;8723;51.502;6.918;2023-10-13T09:39:24;0.85;;;0.82;;
17214;SDS011;8723;51.502;6.918;2023-10-13T09:42:06;0.60;;;0.60;;
17214;SDS011;8723;51.502;6.918;2023-10-13T09:44:35;0.75;;;0.75;;
17214;SDS011;8723;51.502;6.918;2023-10-13T09:47:05;0.77;;;0.77;;
17214;SDS011;8723;51.502;6.918;2023-10-13T09:49:43;0.95;;;0.95;;
17214;SDS011;8723;51.502;6.918;2023-10-13T09:52:11;3.30;;;0.75;;
17214;SDS011;8723;51.502;6.918;2023-10-13T09:54:44;1.30;;;1.23;;
17214;SDS011;8723;51.502;6.918;2023-10-13T09:57:26;13.80;;;1.27;;
17214;SDS011;8723;51.502;6.918;2023-10-13T10:00:00;0.80;;;0.80;;
17214;SDS011;8723;51.502;6.918;2023-10-13T10:02:51;0.50;;;0.50;;
17214;SDS011;8723;51.502;6.918;2023-10-13T10:05:23;1.35;;;1.13;;
17214;SDS011;8723;51.502;6.918;2023-10-13T10:07:55;0.85;;;0.85;;
17214;SDS011;8723;51.502;6.918;2023-10-13T10:10:24;0.50;;;0.50;;
17214;SDS011;8723;51.502;6.918;2023-10-13T10:13:12;1.30;;;1.10;;
17214;SDS011;8723;51.502;6.918;2023-10-13T10:15:48;0.38;;;0.38;;
17214;SDS011;8723;51.502;6.918;2023-10-13T10:18:19;0.90;;;0.90;;
17214;SDS011;8723;51.502;6.918;2023-10-13T10:20:47;2.92;;;0.98;;
17214;SDS011;8723;51.502;6.918;2023-10-13T10:23:24;0.40;;;0.40;;
17214;SDS011;8723;51.502;6.918;2023-10-13T10:25:53;1.10;;;1.10;;
17214;SDS011;8723;51.502;6.918;2023-10-13T10:28:35;6.78;;;1.35;;
17214;SDS011;8723;51.502;6.918;2023-10-13T10:31:04;0.63;;;0.63;;
17214;SDS011;8723;51.502;6.918;2023-10-13T10:33:34;2.13;;;1.60;;
17214;SDS011;8723;51.502;6.918;2023-10-13T10:36:02;1.00;;;1.00;;
17214;SDS011;8723;51.502;6.918;2023-10-13T10:38:31;1.33;;;1.23;;
17214;SDS011;8723;51.502;6.918;2023-10-13T10:41:04;0.75;;;0.75;;
17214;SDS011;8723;51.502;6.918;2023-10-13T10:43:35;1.17;;;1.08;;
17214;SDS011;8723;51.502;6.918;2023-10-13T10:46:10;0.90;;;0.90;;
17214;SDS011;8723;51.502;6.918;2023-10-13T10:48:38;0.80;;;0.80;;
17214;SDS011;8723;51.502;6.918;2023-10-13T10:51:08;0.60;;;0.60;;
17214;SDS011;8723;51.502;6.918;2023-10-13T10:53:47;0.93;;;0.90;;
17214;SDS011;8723;51.502;6.918;2023-10-13T10:56:15;11.55;;;7.80;;
17214;SDS011;8723;51.502;6.918;2023-10-13T10:58:45;9.95;;;7.93;;
17214;SDS011;8723;51.502;6.918;2023-10-13T11:01:12;10.48;;;8.05;;
17214;SDS011;8723;51.502;6.918;2023-10-13T11:03:52;11.40;;;8.02;;
17214;SDS011;8723;51.502;6.918;2023-10-13T11:06:22;13.07;;;8.68;;
17214;SDS011;8723;51.502;6.918;2023-10-13T11:09:05;13.23;;;8.57;;
17214;SDS011;8723;51.502;6.918;2023-10-13T11:11:44;10.18;;;8.23;;
17214;SDS011;8723;51.502;6.918;2023-10-13T11:14:19;10.55;;;8.27;;
17214;SDS011;8723;51.502;6.918;2023-10-13T11:16:49;11.38;;;8.02;;
17214;SDS011;8723;51.502;6.918;2023-10-13T11:19:18;11.93;;;8.38;;
17214;SDS011;8723;51.502;6.918;2023-10-13T11:21:53;14.23;;;7.90;;
17214;SDS011;8723;51.502;6.918;2023-10-13T11:24:22;12.10;;;8.25;;
17214;SDS011;8723;51.502;6.918;2023-10-13T11:26:49;9.00;;;8.10;;
17214;SDS011;8723;51.502;6.918;2023-10-13T11:29:17;10.43;;;7.93;;
17214;SDS011;8723;51.502;6.918;2023-10-13T11:31:48;9.68;;;7.80;;
17214;SDS011;8723;51.502;6.918;2023-10-13T11:34:23;13.27;;;7.90;;
17214;SDS011;8723;51.502;6.918;2023-10-13T11:36:50;12.35;;;8.02;;
17214;SDS011;8723;51.502;6.918;2023-10-13T11:39:17;11.07;;;7.43;;
17214;SDS011;8723;51.502;6.918;2023-10-13T11:41:50;11.68;;;7.43;;
17214;SDS011;8723;51.502;6.918;2023-10-13T11:44:20;10.95;;;7.43;;
17214;SDS011;8723;51.502;6.918;2023-10-13T11:46:56;13.40;;;7.25;;
17214;SDS011;8723;51.502;6.918;2023-10-13T11:49:32;10.55;;;7.10;;
17214;SDS011;8723;51.502;6.918;2023-10-13T11:52:02;12.63;;;7.30;;
17214;SDS011;8723;51.502;6.918;2023-10-13T11:54:42;13.70;;;6.90;;
17214;SDS011;8723;51.502;6.918;2023-10-13T11:57:11;10.93;;;7.15;;
17214;SDS011;8723;51.502;6.918;2023-10-13T11:59:37;12.63;;;7.18;;
17214;SDS011;8723;51.502;6.918;2023-10-13T12:02:18;13.13;;;6.50;;
17214;SDS011;8723;51.502;6.918;2023-10-13T12:05:03;9.77;;;7.03;;
17214;SDS011;8723;51.502;6.918;2023-10-13T12:07:37;12.75;;;6.70;;
17214;SDS011;8723;51.502;6.918;2023-10-13T12:10:10;12.90;;;6.90;;
17214;SDS011;8723;51.502;6.918;2023-10-13T12:12:43;11.37;;;6.80;;
17214;SDS011;8723;51.502;6.918;2023-10-13T12:15:11;11.73;;;7.07;;
17214;SDS011;8723;51.502;6.918;2023-10-13T12:17:50;13.00;;;6.53;;
17214;SDS011;8723;51.502;6.918;2023-10-13T12:20:17;11.00;;;6.35;;
17214;SDS011;8723;51.502;6.918;2023-10-13T12:22:57;12.07;;;6.97;;
17214;SDS011;8723;51.502;6.918;2023-10-13T12:25:35;14.32;;;7.00;;
17214;SDS011;8723;51.502;6.918;2023-10-13T12:28:21;13.15;;;6.68;;
17214;SDS011;8723;51.502;6.918;2023-10-13T12:30:50;13.45;;;6.35;;
17214;SDS011;8723;51.502;6.918;2023-10-13T12:33:18;13.55;;;6.57;;
17214;SDS011;8723;51.502;6.918;2023-10-13T12:35:58;13.85;;;6.50;;
17214;SDS011;8723;51.502;6.918;2023-10-13T12:38:32;12.38;;;6.35;;
17214;SDS011;8723;51.502;6.918;2023-10-13T12:41:37;14.50;;;6.60;;
17214;SDS011;8723;51.502;6.918;2023-10-13T12:44:23;12.15;;;6.47;;
17214;SDS011;8723;51.502;6.918;2023-10-13T12:47:08;12.48;;;6.30;;
17214;SDS011;8723;51.502;6.918;2023-10-13T12:49:52;11.55;;;5.68;;
17214;SDS011;8723;51.502;6.918;2023-10-13T12:52:24;12.65;;;6.93;;
17214;SDS011;8723;51.502;6.918;2023-10-13T12:54:52;14.73;;;6.47;;
17214;SDS011;8723;51.502;6.918;2023-10-13T12:57:31;14.83;;;6.50;;
17214;SDS011;8723;51.502;6.918;2023-10-13T12:59:59;14.80;;;6.50;;
17214;SDS011;8723;51.502;6.918;2023-10-13T13:02:41;13.33;;;6.47;;
17214;SDS011;8723;51.502;6.918;2023-10-13T13:05:08;17.45;;;6.78;;
17214;SDS011;8723;51.502;6.918;2023-10-13T13:07:37;15.65;;;6.32;;
17214;SDS011;8723;51.502;6.918;2023-10-13T13:10:12;15.90;;;6.07;;
17214;SDS011;8723;51.502;6.918;2023-10-13T13:12:39;13.65;;;6.47;;
17214;SDS011;8723;51.502;6.918;2023-10-13T13:15:07;14.75;;;7.18;;
17214;SDS011;8723;51.502;6.918;2023-10-13T13:17:36;13.32;;;6.50;;
17214;SDS011;8723;51.502;6.918;2023-10-13T13:20:04;14.98;;;6.53;;
17214;SDS011;8723;51.502;6.918;2023-10-13T13:22:50;10.73;;;5.80;;
17214;SDS011;8723;51.502;6.918;2023-10-13T13:25:18;12.68;;;6.13;;
17214;SDS011;8723;51.502;6.918;2023-10-13T13:27:50;15.70;;;6.40;;
17214;SDS011;8723;51.502;6.918;2023-10-13T13:30:18;11.75;;;6.28;;
17214;SDS011;8723;51.502;6.918;2023-10-13T13:32:47;17.20;;;6.28;;
17214;SDS011;8723;51.502;6.918;2023-10-13T13:35:15;12.97;;;6.20;;
17214;SDS011;8723;51.502;6.918;2023-10-13T13:37:43;13.93;;;6.40;;
17214;SDS011;8723;51.502;6.918;2023-10-13T13:40:10;12.98;;;6.40;;
17214;SDS011;8723;51.502;6.918;2023-10-13T13:42:41;14.95;;;6.57;;
17214;SDS011;8723;51.502;6.918;2023-10-13T13:45:11;13.80;;;6.20;;
17214;SDS011;8723;51.502;6.918;2023-10-13T13:47:47;12.05;;;6.05;;
17214;SDS011;8723;51.502;6.918;2023-10-13T13:50:19;17.92;;;6.68;;
17214;SDS011;8723;51.502;6.918;2023-10-13T13:52:50;13.52;;;6.22;;
17214;SDS011;8723;51.502;6.918;2023-10-13T13:55:18;13.88;;;5.93;;
17214;SDS011;8723;51.502;6.918;2023-10-13T13:57:45;12.68;;;6.43;;
17214;SDS011;8723;51.502;6.918;2023-10-13T14:00:15;13.20;;;6.22;;
17214;SDS011;8723;51.502;6.918;2023-10-13T14:02:45;15.98;;;5.95;;
17214;SDS011;8723;51.502;6.918;2023-10-13T14:05:14;12.05;;;6.00;;
17214;SDS011;8723;51.502;6.918;2023-10-13T14:07:42;10.52;;;5.63;;
17214;SDS011;8723;51.502;6.918;2023-10-13T14:10:13;16.30;;;5.70;;
17214;SDS011;8723;51.502;6.918;2023-10-13T14:12:56;11.98;;;5.82;;
17214;SDS011;8723;51.502;6.918;2023-10-13T14:15:31;14.05;;;5.88;;
17214;SDS011;8723;51.502;6.918;2023-10-13T14:18:04;14.50;;;5.80;;
17214;SDS011;8723;51.502;6.918;2023-10-13T14:20:39;14.50;;;6.10;;
17214;SDS011;8723;51.502;6.918;2023-10-13T14:23:07;13.13;;;5.70;;
17214;SDS011;8723;51.502;6.918;2023-10-13T14:25:37;14.77;;;5.82;;
17214;SDS011;8723;51.502;6.918;2023-10-13T14:28:09;13.77;;;5.93;;
17214;SDS011;8723;51.502;6.918;2023-10-13T14:30:40;13.40;;;6.25;;
17214;SDS011;8723;51.502;6.918;2023-10-13T14:33:07;13.70;;;6.00;;
17214;SDS011;8723;51.502;6.918;2023-10-13T14:35:36;15.07;;;6.25;;
17214;SDS011;8723;51.502;6.918;2023-10-13T14:38:04;12.30;;;5.80;;
17214;SDS011;8723;51.502;6.918;2023-10-13T14:40:32;16.45;;;6.47;;
17214;SDS011;8723;51.502;6.918;2023-10-13T14:42:58;19.97;;;6.50;;
17214;SDS011;8723;51.502;6.918;2023-10-13T14:45:25;11.27;;;5.70;;
17214;SDS011;8723;51.502;6.918;2023-10-13T14:47:52;14.00;;;5.97;;
17214;SDS011;8723;51.502;6.918;2023-10-13T14:50:19;13.45;;;5.85;;
17214;SDS011;8723;51.502;6.918;2023-10-13T14:52:46;12.00;;;5.88;;
17214;SDS011;8723;51.502;6.918;2023-10-13T14:55:14;13.68;;;5.90;;
17214;SDS011;8723;51.502;6.918;2023-10-13T14:58:03;12.35;;;5.85;;
17214;SDS011;8723;51.502;6.918;2023-10-13T15:00:32;13.98;;;6.20;;
17214;SDS011;8723;51.502;6.918;2023-10-13T15:03:00;12.27;;;5.63;;
17214;SDS011;8723;51.502;6.918;2023-10-13T15:05:27;16.17;;;6.40;;
17214;SDS011;8723;51.502;6.918;2023-10-13T15:07:56;13.18;;;6.15;;
17214;SDS011;8723;51.502;6.918;2023-10-13T15:10:25;14.07;;;5.70;;
17214;SDS011;8723;51.502;6.918;2023-10-13T15:12:52;14.23;;;5.68;;
17214;SDS011;8723;51.502;6.918;2023-10-13T15:15:18;13.53;;;5.53;;
17214;SDS011;8723;51.502;6.918;2023-10-13T15:17:45;12.95;;;5.65;;
17214;SDS011;8723;51.502;6.918;2023-10-13T15:20:12;10.10;;;6.03;;
17214;SDS011;8723;51.502;6.918;2023-10-13T15:22:42;11.95;;;5.63;;
17214;SDS011;8723;51.502;6.918;2023-10-13T15:25:09;13.20;;;5.50;;
17214;SDS011;8723;51.502;6.918;2023-10-13T15:27:44;13.48;;;5.75;;
17214;SDS011;8723;51.502;6.918;2023-10-13T15:30:20;9.80;;;5.60;;